Time;durP1;ratioP1;P1;durP2;ratioP2;P2;SDS_P1;SDS_P2;PMS_P1;PMS_P2;Temp;Humidity;BMP_temperature;BMP_pressure;BME280_temperature;BME280_humidity;BME280_pressure;Samples;Min_cycle;Max_cycle;Signal;HPM_P1;HPM_P2
2023/07/27 00:01:22;;;;;;;6.65;4.90;;;;;;;28.33;45.53;97158.94;5112562;28;20172;-57
2023/07/27 00:03:48;;;;;;;7.13;5.20;;;;;;;28.24;45.85;97163.09;5112779;28;20195;-57
2023/07/27 00:06:13;;;;;;;7.68;5.22;;;;;;;28.16;46.94;97173.38;5112022;28;20218;-57
2023/07/27 00:08:39;;;;;;;6.78;5.47;;;;;;;28.20;47.39;97185.94;5112303;28;20238;-57
2023/07/27 00:11:04;;;;;;;6.85;5.85;;;;;;;28.17;47.42;97183.75;5112404;28;20171;-57
2023/07/27 00:13:29;;;;;;;7.63;5.20;;;;;;;27.97;47.38;97159.53;5112430;28;20248;-57
2023/07/27 00:15:55;;;;;;;9.23;5.43;;;;;;;28.11;47.58;97195.34;5111928;28;20669;-57
2023/07/27 00:18:20;;;;;;;6.88;5.03;;;;;;;28.09;47.47;97194.00;5111939;28;20262;-57
2023/07/27 00:20:46;;;;;;;6.00;4.80;;;;;;;27.99;47.65;97178.69;5111030;28;20181;-57
2023/07/27 00:23:11;;;;;;;9.55;5.63;;;;;;;27.98;47.73;97176.31;5112215;28;20163;-57
2023/07/27 00:25:36;;;;;;;8.38;5.47;;;;;;;27.90;47.58;97169.53;5112138;28;20259;-57
2023/07/27 00:28:02;;;;;;;5.72;4.70;;;;;;;27.87;47.37;97166.56;5112002;28;20218;-57
2023/07/27 00:30:27;;;;;;;11.27;5.35;;;;;;;27.96;47.47;97173.88;5112046;28;20209;-57
2023/07/27 00:32:52;;;;;;;6.88;5.30;;;;;;;28.03;47.29;97189.66;5111947;28;20167;-57
2023/07/27 00:35:18;;;;;;;8.70;4.82;;;;;;;27.88;46.93;97174.28;5112220;28;20555;-57
2023/07/27 00:37:43;;;;;;;9.50;4.93;;;;;;;27.88;45.86;97187.56;5111805;28;20265;-57
2023/07/27 00:40:09;;;;;;;6.68;4.45;;;;;;;27.64;45.53;97153.41;5111851;28;20175;-57
2023/07/27 00:42:34;;;;;;;5.03;4.22;;;;;;;27.55;45.89;97171.63;5111837;28;20652;-57
2023/07/27 00:45:00;;;;;;;10.48;4.60;;;;;;;27.40;46.03;97200.59;5111517;28;20243;-57
2023/07/27 00:47:25;;;;;;;8.07;4.82;;;;;;;27.39;46.44;97183.03;5111683;28;20609;-57
2023/07/27 00:49:51;;;;;;;5.95;4.88;;;;;;;27.55;46.21;97198.19;5111584;28;20167;-57
2023/07/27 00:52:16;;;;;;;9.98;5.15;;;;;;;27.48;47.28;97200.22;5111716;28;20190;-57
2023/07/27 00:54:42;;;;;;;6.85;5.20;;;;;;;27.35;47.62;97175.81;5111733;28;20171;-56
2023/07/27 00:57:08;;;;;;;6.03;4.57;;;;;;;27.25;47.78;97168.47;5111865;28;20246;-57
2023/07/27 00:59:33;;;;;;;7.93;5.13;;;;;;;27.44;48.15;97204.38;5111532;28;20186;-57
2023/07/27 01:01:59;;;;;;;7.53;5.40;;;;;;;27.22;48.73;97174.25;5111477;28;20220;-57
2023/07/27 01:04:25;;;;;;;5.35;4.72;;;;;;;27.39;49.44;97216.75;5111419;28;20258;-57
2023/07/27 01:06:51;;;;;;;8.25;5.55;;;;;;;27.11;49.78;97188.34;5111422;28;20247;-57
2023/07/27 01:09:16;;;;;;;7.10;5.18;;;;;;;27.16;50.29;97209.72;5111447;28;20180;-56
2023/07/27 01:12:05;;;;;;;11.13;6.07;;;;;;;26.99;51.38;97198.22;5111484;28;20170;-56
2023/07/27 01:14:37;;;;;;;6.15;4.65;;;;;;;27.08;51.17;97220.72;5111518;28;20182;-57
2023/07/27 01:17:24;;;;;;;7.05;5.13;;;;;;;26.94;51.46;97227.34;5111491;28;20171;-57
2023/07/27 01:20:25;;;;;;;7.18;5.55;;;;;;;26.81;52.16;97222.31;5111296;28;20625;-57
2023/07/27 01:23:18;;;;;;;7.55;4.82;;;;;;;26.50;52.12;97193.53;5088322;28;20618;-57
2023/07/27 01:26:16;;;;;;;7.57;5.68;;;;;;;26.72;51.65;97209.63;5088466;28;20267;-57
2023/07/27 01:29:26;;;;;;;5.55;5.03;;;;;;;26.75;51.06;97223.25;5028227;28;20236;-57
2023/07/27 01:31:52;;;;;;;10.48;5.35;;;;;;;26.64;51.14;97186.13;5029257;28;20201;-57
2023/07/27 01:34:27;;;;;;;6.90;4.78;;;;;;;26.83;50.54;97214.91;5032314;28;20177;-57
2023/07/27 01:36:58;;;;;;;6.07;4.55;;;;;;;26.76;50.00;97222.19;5032307;28;20277;-56
2023/07/27 01:39:26;;;;;;;7.80;4.80;;;;;;;26.61;50.25;97207.81;5032253;28;20189;-57
2023/07/27 01:41:54;;;;;;;8.05;5.00;;;;;;;26.34;51.16;97188.94;5032161;28;20182;-57
2023/07/27 01:44:22;;;;;;;8.52;5.10;;;;;;;26.38;51.93;97219.25;5032110;28;20703;-57
2023/07/27 01:46:50;;;;;;;6.18;5.15;;;;;;;26.47;51.96;97231.13;5031997;28;20578;-57
2023/07/27 01:49:17;;;;;;;6.00;4.72;;;;;;;26.26;51.89;97199.09;5031947;28;20189;-61
2023/07/27 01:51:44;;;;;;;6.35;5.57;;;;;;;26.41;51.31;97226.75;5031946;28;20185;-57
2023/07/27 01:54:10;;;;;;;7.63;5.20;;;;;;;26.43;51.62;97234.47;5031924;28;20703;-56
2023/07/27 01:56:37;;;;;;;6.45;4.90;;;;;;;26.19;51.82;97203.72;5031932;28;20731;-56
2023/07/27 01:59:04;;;;;;;6.18;4.93;;;;;;;26.33;51.79;97243.03;5062778;28;20812;-56
2023/07/27 02:01:30;;;;;;;7.43;4.88;;;;;;;26.32;52.41;97240.59;5071765;28;20602;-56
2023/07/27 02:03:56;;;;;;;5.68;5.18;;;;;;;26.09;52.53;97212.25;5073596;28;20189;-57
2023/07/27 02:06:22;;;;;;;5.25;4.75;;;;;;;26.28;52.76;97258.00;5114714;28;20198;-56
2023/07/27 02:08:47;;;;;;;7.40;5.50;;;;;;;25.85;53.42;97220.41;5114702;28;20213;-56
2023/07/27 02:11:16;;;;;;;5.82;5.25;;;;;;;25.85;53.68;97242.41;5114714;28;20175;-56
2023/07/27 02:13:59;;;;;;;7.57;5.10;;;;;;;25.56;54.22;97211.50;5115027;28;20523;-56
2023/07/27 02:16:33;;;;;;;5.78;4.80;;;;;;;25.63;54.71;97267.84;5114738;27;20515;-57
2023/07/27 02:19:01;;;;;;;6.30;5.40;;;;;;;25.55;54.73;97268.13;5114578;28;20227;-56
2023/07/27 02:21:29;;;;;;;7.45;4.88;;;;;;;25.45;54.87;97238.75;5114487;28;20657;-57
2023/07/27 02:23:55;;;;;;;6.10;5.40;;;;;;;25.29;55.09;97220.03;5114082;28;20641;-57
2023/07/27 02:26:21;;;;;;;6.95;5.30;;;;;;;25.49;54.48;97239.13;5114440;28;20179;-57
2023/07/27 02:28:47;;;;;;;7.45;5.07;;;;;;;25.54;54.81;97266.53;5114380;27;20191;-56
2023/07/27 02:31:12;;;;;;;6.97;5.13;;;;;;;25.40;54.60;97240.47;5114475;28;20522;-57
2023/07/27 02:33:38;;;;;;;5.95;4.47;;;;;;;25.58;54.63;97283.59;5114275;28;20258;-59
2023/07/27 02:36:03;;;;;;;8.23;5.30;;;;;;;25.49;55.37;97289.44;5113994;28;20653;-57
2023/07/27 02:38:29;;;;;;;5.53;4.97;;;;;;;25.45;55.06;97273.19;5114471;28;20258;-56
2023/07/27 02:40:54;;;;;;;6.65;5.50;;;;;;;25.31;55.24;97263.03;5114052;28;20175;-56
2023/07/27 02:43:20;;;;;;;5.70;5.10;;;;;;;25.28;55.64;97277.50;5113318;28;20182;-56
2023/07/27 02:45:46;;;;;;;6.75;5.88;;;;;;;25.16;56.33;97278.44;5113994;28;20185;-56
2023/07/27 02:48:11;;;;;;;6.03;5.32;;;;;;;25.04;56.59;97278.41;5113936;28;20203;-56
2023/07/27 02:50:36;;;;;;;6.82;5.60;;;;;;;24.92;56.94;97296.06;5113944;28;20591;-57
2023/07/27 02:53:02;;;;;;;8.27;5.28;;;;;;;25.15;57.16;97306.78;5113871;27;20167;-57
2023/07/27 02:55:27;;;;;;;7.38;5.78;;;;;;;24.99;57.33;97282.75;5113603;28;20195;-56
2023/07/27 02:57:52;;;;;;;10.18;5.53;;;;;;;24.96;58.20;97294.59;5113734;28;20231;-56
2023/07/27 03:00:18;;;;;;;8.23;5.68;;;;;;;24.78;58.19;97272.63;5113468;28;20214;-56
2023/07/27 03:02:43;;;;;;;6.63;5.53;;;;;;;24.98;58.32;97319.00;5113720;28;20163;-56
2023/07/27 03:05:09;;;;;;;5.30;4.80;;;;;;;25.00;58.40;97324.88;5113598;28;20183;-56
2023/07/27 03:07:34;;;;;;;8.05;5.65;;;;;;;24.89;57.90;97285.09;5113629;28;20587;-56
2023/07/27 03:10:00;;;;;;;6.22;5.63;;;;;;;24.88;58.50;97291.44;5113568;28;20641;-56
2023/07/27 03:12:25;;;;;;;6.50;5.90;;;;;;;24.95;58.71;97302.78;5113602;28;20206;-56
2023/07/27 03:14:50;;;;;;;6.93;5.72;;;;;;;25.04;58.75;97333.19;5113489;28;20167;-56
2023/07/27 03:17:16;;;;;;;5.97;5.40;;;;;;;24.89;58.76;97314.22;5113426;27;20548;-56
2023/07/27 03:19:41;;;;;;;5.68;4.80;;;;;;;24.83;58.94;97312.44;5113299;28;20691;-56
2023/07/27 03:22:07;;;;;;;8.35;5.80;;;;;;;24.80;58.78;97304.97;5113591;28;20211;-56
2023/07/27 03:24:33;;;;;;;11.63;5.45;;;;;;;24.96;58.90;97344.09;5113345;27;20261;-56
2023/07/27 03:26:58;;;;;;;7.18;6.07;;;;;;;24.87;58.82;97342.75;5113184;28;20179;-56
2023/07/27 03:29:24;;;;;;;6.18;5.57;;;;;;;24.98;59.13;97345.47;5113149;28;20171;-56
2023/07/27 03:31:49;;;;;;;6.05;5.45;;;;;;;25.09;58.03;97357.94;5113356;28;20618;-56
2023/07/27 03:34:15;;;;;;;5.55;4.88;;;;;;;25.04;57.68;97333.19;5113435;28;20171;-56
2023/07/27 03:36:41;;;;;;;7.32;5.65;;;;;;;25.23;57.57;97342.72;5113035;27;20690;-56
2023/07/27 03:39:07;;;;;;;6.68;5.13;;;;;;;24.86;58.19;97323.44;5112691;28;20215;-56
2023/07/27 03:41:32;;;;;;;6.13;5.45;;;;;;;24.91;58.39;97322.75;5113131;27;20811;-56
2023/07/27 03:43:58;;;;;;;7.30;5.38;;;;;;;24.78;58.47;97318.41;5112945;28;20233;-56
2023/07/27 03:46:23;;;;;;;8.65;5.53;;;;;;;24.92;58.41;97349.00;5112955;28;20203;-56
2023/07/27 03:48:50;;;;;;;6.38;5.13;;;;;;;24.85;57.06;97324.44;5113099;28;20267;-56
2023/07/27 03:51:16;;;;;;;6.18;5.00;;;;;;;25.10;56.88;97364.06;5113293;28;20206;-56
2023/07/27 03:53:41;;;;;;;11.00;6.03;;;;;;;25.09;56.71;97359.81;5113258;28;20175;-56
2023/07/27 03:56:07;;;;;;;7.13;5.35;;;;;;;25.05;55.85;97348.84;5113135;28;20267;-56
2023/07/27 03:58:32;;;;;;;5.88;5.38;;;;;;;25.10;55.56;97354.31;5113111;28;20171;-56
2023/07/27 04:00:58;;;;;;;9.85;6.28;;;;;;;24.91;56.07;97333.34;5113014;28;20530;-56
2023/07/27 04:03:23;;;;;;;8.18;5.82;;;;;;;24.97;56.14;97343.84;5112893;28;20553;-56
2023/07/27 04:05:51;;;;;;;5.60;4.82;;;;;;;25.16;54.82;97350.75;5112671;28;20594;-56
2023/07/27 04:08:16;;;;;;;5.13;4.72;;;;;;;25.31;54.51;97377.69;5112970;28;20683;-56
2023/07/27 04:10:42;;;;;;;4.80;4.40;;;;;;;25.50;53.77;97403.16;5112770;28;20179;-56
2023/07/27 04:13:07;;;;;;;4.40;4.00;;;;;;;25.54;52.15;97406.94;5112457;28;20175;-56
2023/07/27 04:15:33;;;;;;;5.18;4.30;;;;;;;25.19;52.08;97379.44;5112508;28;20185;-56
2023/07/27 04:17:59;;;;;;;5.43;4.20;;;;;;;25.47;51.20;97413.34;5112331;28;20167;-56
2023/07/27 04:20:24;;;;;;;3.80;3.50;;;;;;;25.40;50.41;97426.69;5112095;27;20174;-56
2023/07/27 04:22:49;;;;;;;5.68;3.80;;;;;;;25.08;50.00;97398.69;5112449;28;20171;-56
2023/07/27 04:25:15;;;;;;;5.90;3.63;;;;;;;24.90;50.01;97411.91;5112603;28;20168;-56
2023/07/27 04:27:40;;;;;;;3.65;3.20;;;;;;;24.93;50.72;97447.72;5112394;28;20693;-56
2023/07/27 04:30:06;;;;;;;3.75;3.40;;;;;;;24.81;50.69;97430.94;5112387;28;20167;-56
2023/07/27 04:32:32;;;;;;;2.70;2.50;;;;;;;24.95;50.35;97453.63;5112366;28;20190;-56
2023/07/27 04:34:57;;;;;;;3.28;3.03;;;;;;;24.84;50.64;97428.69;5112325;27;20228;-56
2023/07/27 04:37:23;;;;;;;4.30;3.22;;;;;;;24.89;50.61;97439.41;5112715;28;20179;-56
2023/07/27 04:39:48;;;;;;;3.50;3.30;;;;;;;24.87;51.51;97444.13;5112260;28;20668;-56
2023/07/27 04:42:14;;;;;;;3.75;3.30;;;;;;;24.64;52.36;97441.28;5112276;28;20307;-56
2023/07/27 04:44:39;;;;;;;5.25;3.30;;;;;;;24.76;52.24;97447.50;5112273;28;20525;-56
2023/07/27 04:47:04;;;;;;;5.93;3.53;;;;;;;24.71;52.58;97434.09;5112164;28;20174;-56
2023/07/27 04:49:30;;;;;;;4.60;3.45;;;;;;;24.78;53.35;97450.72;5111869;28;20182;-56
2023/07/27 04:51:55;;;;;;;5.45;3.92;;;;;;;24.69;53.59;97435.34;5112070;28;20171;-56
2023/07/27 04:54:21;;;;;;;4.22;3.83;;;;;;;24.71;53.19;97428.81;5112134;28;20175;-56
2023/07/27 04:56:46;;;;;;;4.28;3.88;;;;;;;24.82;53.11;97441.31;5112086;28;20170;-56
2023/07/27 04:59:11;;;;;;;4.43;4.03;;;;;;;24.62;53.39;97426.66;5111763;28;20228;-56
2023/07/27 05:01:37;;;;;;;4.38;3.97;;;;;;;24.73;53.22;97447.91;5112008;28;20176;-56
2023/07/27 05:04:02;;;;;;;4.10;3.70;;;;;;;24.50;53.21;97441.56;5111875;28;20185;-56
2023/07/27 05:06:28;;;;;;;3.53;3.22;;;;;;;24.64;51.59;97461.63;5111387;28;20190;-56
2023/07/27 05:08:53;;;;;;;3.88;3.30;;;;;;;24.48;50.77;97417.16;5111743;28;20199;-56
2023/07/27 05:11:19;;;;;;;3.25;2.95;;;;;;;24.50;50.08;97415.91;5111596;28;20234;-56
2023/07/27 05:13:44;;;;;;;3.75;3.45;;;;;;;24.60;49.47;97428.69;5111810;28;20186;-56
2023/07/27 05:16:09;;;;;;;3.40;3.20;;;;;;;24.86;48.86;97444.34;5112151;28;20182;-56
2023/07/27 05:18:35;;;;;;;3.30;3.08;;;;;;;24.81;49.15;97449.47;5111861;28;20187;-56
2023/07/27 05:21:00;;;;;;;4.03;3.60;;;;;;;24.82;49.59;97456.38;5111735;28;20254;-56
2023/07/27 05:23:26;;;;;;;3.80;3.50;;;;;;;24.88;49.45;97456.34;5111630;28;20212;-57
2023/07/27 05:25:52;;;;;;;3.90;3.60;;;;;;;24.94;49.15;97439.59;5111730;28;20517;-57
2023/07/27 05:28:17;;;;;;;4.97;3.97;;;;;;;25.05;48.46;97456.56;5111603;28;20198;-57
2023/07/27 05:30:43;;;;;;;3.55;3.25;;;;;;;25.04;49.05;97453.13;5111641;28;20546;-57
2023/07/27 05:33:08;;;;;;;5.13;3.55;;;;;;;25.19;48.98;97474.75;5111651;28;20175;-56
2023/07/27 05:35:34;;;;;;;5.72;3.85;;;;;;;25.00;49.16;97451.94;5111291;28;20653;-56
2023/07/27 05:37:59;;;;;;;4.03;3.72;;;;;;;24.98;49.47;97461.13;5111702;28;20185;-56
2023/07/27 05:40:25;;;;;;;9.75;3.85;;;;;;;24.91;50.18;97447.94;5111616;28;20179;-56
2023/07/27 05:42:50;;;;;;;4.20;3.90;;;;;;;25.00;50.58;97472.31;5111334;28;20175;-56
2023/07/27 05:45:16;;;;;;;3.70;3.25;;;;;;;25.10;49.75;97469.97;5111445;28;20228;-56
2023/07/27 05:47:41;;;;;;;4.72;3.70;;;;;;;24.97;49.49;97475.41;5111063;28;20203;-56
2023/07/27 05:50:07;;;;;;;3.67;3.40;;;;;;;24.80;49.17;97463.75;5111232;28;20642;-56
2023/07/27 05:52:35;;;;;;;4.25;3.75;;;;;;;24.85;50.14;97499.09;5111442;28;20171;-56
2023/07/27 05:55:01;;;;;;;5.32;3.60;;;;;;;24.71;49.18;97508.19;5111710;28;20172;-56
2023/07/27 05:57:26;;;;;;;8.13;3.50;;;;;;;24.35;49.25;97464.88;5111470;28;20324;-56
2023/07/27 05:59:51;;;;;;;4.75;3.50;;;;;;;24.41;48.88;97503.69;5111380;28;20167;-56
2023/07/27 06:02:17;;;;;;;4.55;3.42;;;;;;;24.27;49.29;97489.72;5111053;28;20182;-56
2023/07/27 06:04:42;;;;;;;3.42;3.22;;;;;;;24.13;49.30;97476.00;5111246;28;20175;-56
2023/07/27 06:07:08;;;;;;;3.22;3.08;;;;;;;24.26;48.79;97482.81;5110948;28;20557;-56
2023/07/27 06:09:36;;;;;;;3.78;3.47;;;;;;;24.43;48.41;97497.16;5111251;28;20179;-56
2023/07/27 06:12:14;;;;;;;3.55;3.30;;;;;;;24.49;48.17;97520.09;5110869;28;20548;-57
2023/07/27 06:14:39;;;;;;;3.42;3.13;;;;;;;24.49;47.79;97524.59;5111026;28;20660;-56
2023/07/27 06:17:05;;;;;;;3.72;2.75;;;;;;;24.55;47.66;97524.53;5111073;28;20266;-57
2023/07/27 06:19:31;;;;;;;4.13;3.28;;;;;;;24.41;48.12;97515.09;5113067;28;20190;-57
2023/07/27 06:21:56;;;;;;;5.53;3.13;;;;;;;24.60;48.18;97508.06;5112324;28;20266;-56
2023/07/27 06:24:22;;;;;;;4.82;3.22;;;;;;;24.66;47.64;97521.25;5112428;28;20206;-56
2023/07/27 06:26:47;;;;;;;7.03;2.83;;;;;;;24.58;47.07;97516.22;5112368;28;20204;-56
2023/07/27 06:29:12;;;;;;;3.05;2.83;;;;;;;24.50;46.91;97503.22;5112252;28;20199;-56
2023/07/27 06:31:38;;;;;;;2.97;2.78;;;;;;;24.40;46.90;97494.97;5112272;28;20285;-56
2023/07/27 06:34:03;;;;;;;3.28;2.90;;;;;;;24.44;46.71;97493.47;5112236;28;20175;-56
2023/07/27 06:36:29;;;;;;;3.45;3.15;;;;;;;24.46;45.97;97509.97;5112178;28;20253;-56
2023/07/27 06:38:54;;;;;;;3.53;3.22;;;;;;;24.58;46.34;97491.59;5112147;28;20186;-56
2023/07/27 06:41:25;;;;;;;3.30;3.05;;;;;;;24.68;46.48;97500.66;5112077;28;20328;-56
2023/07/27 06:43:50;;;;;;;3.15;2.95;;;;;;;24.66;46.10;97473.63;5112056;28;20193;-56
2023/07/27 06:46:16;;;;;;;5.20;3.15;;;;;;;24.93;46.32;97495.38;5111924;28;20171;-56
2023/07/27 06:48:42;;;;;;;3.28;3.00;;;;;;;24.81;47.26;97458.25;5111682;28;20824;-56
2023/07/27 06:51:07;;;;;;;4.25;3.33;;;;;;;25.20;47.75;97516.09;5111712;28;20344;-56
2023/07/27 06:53:33;;;;;;;7.53;3.22;;;;;;;24.99;47.89;97476.81;5113341;28;20210;-56
2023/07/27 06:55:58;;;;;;;4.63;2.97;;;;;;;25.29;47.53;97512.19;5114158;28;20661;-56
2023/07/27 06:58:23;;;;;;;3.13;2.92;;;;;;;25.09;47.02;97495.63;5114127;28;20171;-56
2023/07/27 07:00:49;;;;;;;2.85;2.60;;;;;;;25.17;46.92;97491.91;5114145;28;20178;-56
2023/07/27 07:03:14;;;;;;;3.53;2.58;;;;;;;25.10;46.88;97518.44;5114339;28;20175;-56
2023/07/27 07:05:40;;;;;;;2.60;2.40;;;;;;;25.10;45.39;97513.16;5114133;28;20278;-56
2023/07/27 07:08:05;;;;;;;2.50;2.30;;;;;;;24.95;44.72;97488.06;5113945;28;20272;-56
2023/07/27 07:10:31;;;;;;;3.20;2.22;;;;;;;25.11;43.83;97509.47;5113962;28;20171;-56
2023/07/27 07:12:56;;;;;;;5.50;2.40;;;;;;;25.17;44.13;97510.44;5113876;28;20236;-56
2023/07/27 07:15:22;;;;;;;3.22;2.20;;;;;;;25.04;43.90;97482.25;5114058;28;20544;-56
2023/07/27 07:17:47;;;;;;;2.38;2.17;;;;;;;25.17;43.34;97540.38;5113470;28;20172;-56
2023/07/27 07:20:14;;;;;;;2.83;2.00;;;;;;;25.00;43.37;97483.72;5113690;28;20712;-56
2023/07/27 07:22:39;;;;;;;2.38;1.92;;;;;;;25.06;43.47;97490.78;5113650;28;20266;-56
2023/07/27 07:25:05;;;;;;;2.95;1.70;;;;;;;25.25;43.47;97516.28;5111460;28;20681;-56
2023/07/27 07:27:31;;;;;;;2.17;1.98;;;;;;;25.25;42.50;97475.78;5113569;28;20203;-56
2023/07/27 07:29:56;;;;;;;2.10;1.98;;;;;;;25.53;42.63;97499.88;5113250;28;20210;-56
2023/07/27 07:32:21;;;;;;;2.00;1.80;;;;;;;25.83;42.56;97522.00;5113327;28;20171;-56
2023/07/27 07:34:47;;;;;;;2.70;2.33;;;;;;;25.87;41.57;97504.59;5113551;28;20181;-56
2023/07/27 07:37:12;;;;;;;3.50;1.90;;;;;;;26.06;40.19;97504.38;5113214;28;20182;-56
2023/07/27 07:39:38;;;;;;;2.17;1.98;;;;;;;26.20;40.20;97520.94;5113413;28;20194;-56
2023/07/27 07:42:03;;;;;;;1.88;1.70;;;;;;;26.15;39.57;97539.34;5113076;28;20219;-56
2023/07/27 07:44:29;;;;;;;1.95;1.85;;;;;;;26.10;39.39;97526.78;5113283;28;20606;-56
2023/07/27 07:46:55;;;;;;;6.53;1.70;;;;;;;25.91;39.04;97493.38;5113169;27;20175;-56
2023/07/27 07:49:20;;;;;;;4.07;1.60;;;;;;;26.16;38.77;97555.03;5112867;28;20202;-56
2023/07/27 07:51:45;;;;;;;4.63;1.60;;;;;;;26.12;39.14;97545.91;5113181;28;20266;-56
2023/07/27 07:54:11;;;;;;;3.03;1.48;;;;;;;25.97;38.86;97537.56;5113495;28;20237;-56
2023/07/27 07:56:37;;;;;;;3.22;1.60;;;;;;;25.98;39.35;97539.16;5113107;28;20170;-57
2023/07/27 07:59:03;;;;;;;2.17;1.98;;;;;;;25.92;39.76;97561.25;5113034;28;20246;-56
2023/07/27 08:01:28;;;;;;;6.28;1.40;;;;;;;25.73;39.69;97522.50;5112963;28;20175;-56
2023/07/27 08:03:53;;;;;;;1.90;1.80;;;;;;;25.75;39.53;97556.72;5112887;28;20643;-56
2023/07/27 08:06:19;;;;;;;5.82;1.95;;;;;;;25.82;39.08;97530.94;5112944;28;20656;-56
2023/07/27 08:08:45;;;;;;;1.50;1.38;;;;;;;25.70;38.65;97530.06;5112743;28;20277;-56
2023/07/27 08:11:11;;;;;;;1.70;1.60;;;;;;;25.82;38.14;97557.47;5112840;28;20274;-56
2023/07/27 08:13:36;;;;;;;3.58;1.58;;;;;;;25.70;38.33;97549.44;5112589;28;20250;-56
2023/07/27 08:16:05;;;;;;;1.55;1.30;;;;;;;25.95;38.71;97584.66;5112773;28;20175;-56
2023/07/27 08:18:32;;;;;;;1.48;1.45;;;;;;;25.99;38.16;97572.59;5112852;28;20178;-56
2023/07/27 08:20:58;;;;;;;2.60;1.55;;;;;;;25.88;37.20;97544.13;5112726;28;20231;-56
2023/07/27 08:23:24;;;;;;;1.80;1.27;;;;;;;25.95;36.59;97574.06;5112607;28;20210;-56
2023/07/27 08:25:49;;;;;;;3.53;1.80;;;;;;;25.77;37.12;97568.72;5112959;28;20206;-56
2023/07/27 08:28:14;;;;;;;3.70;1.50;;;;;;;25.46;36.89;97528.31;5112454;28;20199;-56
2023/07/27 08:30:43;;;;;;;1.45;1.17;;;;;;;25.49;36.57;97581.66;5112191;28;20236;-56
2023/07/27 08:33:08;;;;;;;3.10;1.70;;;;;;;25.39;36.85;97568.13;5112408;28;20179;-56
2023/07/27 08:35:33;;;;;;;3.90;1.63;;;;;;;25.23;37.16;97555.41;5112066;28;20178;-56
2023/07/27 08:37:59;;;;;;;1.40;1.30;;;;;;;25.11;36.09;97543.06;5112369;28;20175;-56
2023/07/27 08:40:24;;;;;;;2.88;1.20;;;;;;;25.34;35.93;97567.97;5112302;28;20175;-56
2023/07/27 08:42:50;;;;;;;1.63;1.13;;;;;;;25.38;34.92;97573.63;5111624;28;20259;-56
2023/07/27 08:45:20;;;;;;;1.50;1.40;;;;;;;24.97;35.12;97533.63;5112233;28;20202;-56
2023/07/27 08:47:47;;;;;;;2.40;1.27;;;;;;;24.91;35.11;97553.81;5111705;28;20203;-56
2023/07/27 08:50:13;;;;;;;1.30;1.20;;;;;;;24.99;34.45;97579.22;5112469;28;20175;-56
2023/07/27 08:52:38;;;;;;;3.72;1.10;;;;;;;25.02;34.19;97584.88;5112094;28;20171;-56
2023/07/27 08:55:05;;;;;;;3.92;1.23;;;;;;;24.85;33.80;97559.19;5112036;28;20686;-56
2023/07/27 08:57:31;;;;;;;1.15;1.10;;;;;;;24.80;33.87;97602.19;5112273;28;20228;-56
2023/07/27 08:59:57;;;;;;;2.45;1.13;;;;;;;24.59;34.30;97601.66;5112014;28;20176;-56
2023/07/27 09:02:22;;;;;;;2.10;1.00;;;;;;;24.43;34.30;97608.25;5111978;28;20250;-57
2023/07/27 09:04:48;;;;;;;3.00;1.23;;;;;;;24.25;34.60;97592.25;5111981;28;20179;-56
2023/07/27 09:07:14;;;;;;;9.25;1.20;;;;;;;24.08;33.79;97573.63;5111973;28;20310;-56
2023/07/27 09:09:40;;;;;;;2.00;1.00;;;;;;;24.09;34.31;97571.59;5111920;28;20183;-56
2023/07/27 09:12:07;;;;;;;0.80;0.80;;;;;;;23.81;34.15;97557.03;5111836;28;20716;-56
2023/07/27 09:14:36;;;;;;;1.88;1.20;;;;;;;23.61;34.66;97566.03;5111869;28;20527;-56
2023/07/27 09:17:02;;;;;;;4.25;0.93;;;;;;;23.63;34.63;97622.91;5111810;28;20171;-56
2023/07/27 09:19:32;;;;;;;1.60;1.20;;;;;;;23.36;35.23;97596.75;5111712;28;20183;-56
2023/07/27 09:21:58;;;;;;;4.15;1.13;;;;;;;23.24;36.63;97611.59;5111833;28;20621;-56
2023/07/27 09:24:23;;;;;;;1.48;1.33;;;;;;;23.13;37.96;97615.59;5111678;28;20185;-56
2023/07/27 09:26:51;;;;;;;1.30;1.10;;;;;;;23.34;37.13;97649.75;5111683;28;20202;-56
2023/07/27 09:29:21;;;;;;;1.50;1.20;;;;;;;23.24;37.22;97638.00;5111642;28;20264;-56
2023/07/27 09:31:50;;;;;;;1.08;0.90;;;;;;;23.38;36.39;97671.28;5111809;28;20183;-56
2023/07/27 09:34:17;;;;;;;1.67;1.10;;;;;;;23.20;36.19;97658.66;5111670;28;20200;-56
2023/07/27 09:36:43;;;;;;;1.00;1.00;;;;;;;23.23;36.38;97654.81;5111434;28;20199;-56
2023/07/27 09:39:09;;;;;;;0.85;0.85;;;;;;;23.35;36.32;97677.78;5111721;28;20203;-56
2023/07/27 09:41:36;;;;;;;3.90;1.10;;;;;;;23.34;36.39;97654.22;5111706;28;20175;-56
2023/07/27 09:44:02;;;;;;;1.13;0.98;;;;;;;23.58;36.77;97687.94;5111753;28;20228;-56
2023/07/27 09:46:29;;;;;;;1.48;0.95;;;;;;;23.49;36.26;97678.59;5111609;28;20211;-56
2023/07/27 09:48:58;;;;;;;1.15;1.05;;;;;;;23.80;35.50;97698.88;5111539;28;20214;-56
2023/07/27 09:51:26;;;;;;;0.90;0.90;;;;;;;23.96;35.00;97695.03;5111650;28;20167;-55
2023/07/27 09:53:51;;;;;;;1.75;1.00;;;;;;;24.08;35.15;97679.38;5114074;28;20266;-55
2023/07/27 09:56:17;;;;;;;3.90;1.00;;;;;;;24.23;35.02;97668.34;5115642;28;20246;-55
2023/07/27 09:58:46;;;;;;;1.10;0.93;;;;;;;24.43;35.13;97677.00;5115610;28;20183;-56
2023/07/27 10:01:11;;;;;;;2.13;1.00;;;;;;;24.56;35.62;97653.13;5115435;28;20178;-55
2023/07/27 10:03:37;;;;;;;1.05;1.05;;;;;;;24.70;35.15;97641.50;5115466;28;20176;-55
2023/07/27 10:06:03;;;;;;;0.95;0.95;;;;;;;24.92;35.24;97661.34;5115316;28;20190;-55
2023/07/27 10:08:29;;;;;;;1.17;1.10;;;;;;;25.09;35.39;97641.25;5115304;27;20577;-55
2023/07/27 10:10:58;;;;;;;1.10;1.02;;;;;;;25.12;36.15;97598.47;5115205;28;20215;-55
2023/07/27 10:13:24;;;;;;;1.25;1.15;;;;;;;25.64;34.92;97642.25;5115192;28;20185;-57
2023/07/27 10:15:51;;;;;;;2.55;1.20;;;;;;;25.92;34.44;97624.91;5115100;28;20171;-56
2023/07/27 10:18:22;;;;;;;1.92;1.65;;;;;;;26.17;34.93;97625.63;5114985;28;20206;-56
2023/07/27 10:20:47;;;;;;;3.45;1.45;;;;;;;26.43;33.83;97616.53;5115254;28;20171;-56
2023/07/27 10:23:19;;;;;;;1.92;1.50;;;;;;;26.44;33.90;97604.88;5114904;28;20660;-56
2023/07/27 10:25:56;;;;;;;1.48;1.38;;;;;;;26.76;33.00;97612.44;5114793;28;20312;-56
2023/07/27 10:28:43;;;;;;;1.95;1.67;;;;;;;26.88;33.46;97637.16;5114806;27;20566;-56
2023/07/27 10:31:24;;;;;;;3.47;1.77;;;;;;;26.91;32.79;97604.84;5114836;28;20186;-56
2023/07/27 10:34:01;;;;;;;1.73;1.33;;;;;;;27.23;31.52;97616.03;5114806;28;20186;-56
2023/07/27 10:36:57;;;;;;;7.43;1.52;;;;;;;27.38;31.49;97606.59;5114923;28;20175;-56
2023/07/27 10:39:34;;;;;;;2.05;1.13;;;;;;;27.12;30.70;97579.63;5112257;28;20903;-56
2023/07/27 10:42:07;;;;;;;3.25;1.42;;;;;;;27.23;30.60;97576.19;5114434;28;20171;-56
2023/07/27 10:44:42;;;;;;;2.00;1.23;;;;;;;27.29;31.07;97576.06;5114393;28;20179;-57
2023/07/27 10:47:11;;;;;;;3.65;1.40;;;;;;;27.50;31.08;97580.00;5114273;28;20595;-55
2023/07/27 10:49:41;;;;;;;2.58;1.35;;;;;;;27.50;29.38;97588.78;5114198;28;20373;-57
2023/07/27 10:52:08;;;;;;;4.88;1.17;;;;;;;27.66;28.69;97588.09;5114259;27;20171;-56
2023/07/27 10:54:39;;;;;;;1.30;1.20;;;;;;;27.84;28.97;97577.38;5114291;28;20175;-56
2023/07/27 10:57:08;;;;;;;0.90;0.90;;;;;;;28.06;28.52;97575.69;5114273;28;20645;-56
2023/07/27 10:59:38;;;;;;;3.30;1.10;;;;;;;28.41;28.46;97596.91;5114108;28;20191;-55
2023/07/27 11:02:10;;;;;;;2.85;1.25;;;;;;;28.53;28.66;97581.69;5114131;28;20588;-56
2023/07/27 11:04:37;;;;;;;2.03;1.35;;;;;;;28.50;28.46;97580.31;5113296;28;20653;-56
2023/07/27 11:07:03;;;;;;;0.98;0.88;;;;;;;28.48;27.83;97566.44;5114193;28;20193;-56
2023/07/27 11:09:28;;;;;;;5.65;1.13;;;;;;;28.71;28.27;97584.16;5113935;28;20207;-56
2023/07/27 11:12:00;;;;;;;1.17;0.82;;;;;;;28.94;28.13;97579.53;5114033;28;20164;-56
2023/07/27 11:14:26;;;;;;;2.55;1.13;;;;;;;29.00;27.90;97559.13;5113938;28;20167;-56
2023/07/27 11:16:52;;;;;;;4.57;1.10;;;;;;;29.35;27.68;97579.16;5113610;28;20178;-57
2023/07/27 11:19:17;;;;;;;5.32;1.23;;;;;;;29.47;27.22;97603.88;5111083;28;20243;-57
2023/07/27 11:21:43;;;;;;;4.60;0.85;;;;;;;29.33;27.04;97594.56;5090715;28;20564;-56
2023/07/27 11:24:10;;;;;;;1.63;1.10;;;;;;;29.24;26.73;97598.69;5090976;28;20199;-57
2023/07/27 11:26:37;;;;;;;2.85;1.20;;;;;;;29.47;26.61;97603.88;5090649;28;20693;-57
2023/07/27 11:29:04;;;;;;;4.53;1.00;;;;;;;29.46;26.05;97596.09;5090599;28;20583;-56
2023/07/27 11:31:29;;;;;;;4.07;1.00;;;;;;;29.33;25.79;97591.91;5090662;28;20225;-56
2023/07/27 11:33:59;;;;;;;2.05;0.90;;;;;;;29.45;26.68;97607.81;5090596;28;20274;-56